sensor_id;sensor_type;location;lat;lon;timestamp;temperature;humidity
20416;DHT22;10367;52.202;5.996;2022-07-05T00:02:26;15.00;99.90
20416;DHT22;10367;52.202;5.996;2022-07-05T00:04:56;15.00;99.90
20416;DHT22;10367;52.202;5.996;2022-07-05T00:07:24;15.00;99.90
20416;DHT22;10367;52.202;5.996;2022-07-05T00:09:55;15.00;99.90
20416;DHT22;10367;52.202;5.996;2022-07-05T00:12:25;14.90;99.90
20416;DHT22;10367;52.202;5.996;2022-07-05T00:14:56;14.80;99.90
20416;DHT22;10367;52.202;5.996;2022-07-05T00:17:25;14.80;99.90
20416;DHT22;10367;52.202;5.996;2022-07-05T00:19:55;14.80;99.90
20416;DHT22;10367;52.202;5.996;2022-07-05T00:22:23;14.80;99.90
20416;DHT22;10367;52.202;5.996;2022-07-05T00:24:57;14.80;99.90
20416;DHT22;10367;52.202;5.996;2022-07-05T00:27:25;14.80;99.90
20416;DHT22;10367;52.202;5.996;2022-07-05T00:29:56;14.60;99.90
20416;DHT22;10367;52.202;5.996;2022-07-05T00:32:24;14.60;99.90
20416;DHT22;10367;52.202;5.996;2022-07-05T00:34:53;14.50;99.90
20416;DHT22;10367;52.202;5.996;2022-07-05T00:37:22;14.40;99.90
20416;DHT22;10367;52.202;5.996;2022-07-05T00:39:53;14.40;99.90
20416;DHT22;10367;52.202;5.996;2022-07-05T00:42:22;14.40;99.90
20416;DHT22;10367;52.202;5.996;2022-07-05T00:44:50;14.40;99.90
20416;DHT22;10367;52.202;5.996;2022-07-05T00:47:21;14.40;99.90
20416;DHT22;10367;52.202;5.996;2022-07-05T00:49:50;14.30;99.90
20416;DHT22;10367;52.202;5.996;2022-07-05T00:52:19;14.30;99.90
20416;DHT22;10367;52.202;5.996;2022-07-05T00:54:49;14.20;99.90
20416;DHT22;10367;52.202;5.996;2022-07-05T00:57:21;14.20;99.90
20416;DHT22;10367;52.202;5.996;2022-07-05T01:00:04;14.00;99.90
20416;DHT22;10367;52.202;5.996;2022-07-05T01:02:36;14.00;99.90
20416;DHT22;10367;52.202;5.996;2022-07-05T01:05:06;14.10;99.90
20416;DHT22;10367;52.202;5.996;2022-07-05T01:07:34;14.20;99.90
20416;DHT22;10367;52.202;5.996;2022-07-05T01:10:04;14.10;99.90
20416;DHT22;10367;52.202;5.996;2022-07-05T01:12:33;14.10;99.90
20416;DHT22;10367;52.202;5.996;2022-07-05T01:15:19;14.10;99.90
20416;DHT22;10367;52.202;5.996;2022-07-05T01:17:50;14.10;99.90
20416;DHT22;10367;52.202;5.996;2022-07-05T01:20:22;14.10;99.90
20416;DHT22;10367;52.202;5.996;2022-07-05T01:22:53;14.00;99.90
20416;DHT22;10367;52.202;5.996;2022-07-05T01:25:24;13.90;99.90
20416;DHT22;10367;52.202;5.996;2022-07-05T01:27:54;13.90;99.90
20416;DHT22;10367;52.202;5.996;2022-07-05T01:30:24;13.90;99.90
20416;DHT22;10367;52.202;5.996;2022-07-05T01:32:53;13.90;99.90
20416;DHT22;10367;52.202;5.996;2022-07-05T01:35:21;13.90;99.90
20416;DHT22;10367;52.202;5.996;2022-07-05T01:37:52;13.80;99.90
20416;DHT22;10367;52.202;5.996;2022-07-05T01:40:21;13.60;99.90
20416;DHT22;10367;52.202;5.996;2022-07-05T01:42:51;13.60;99.90
20416;DHT22;10367;52.202;5.996;2022-07-05T01:45:23;13.60;99.90
20416;DHT22;10367;52.202;5.996;2022-07-05T01:48:11;13.60;99.90
20416;DHT22;10367;52.202;5.996;2022-07-05T01:50:45;13.60;99.90
20416;DHT22;10367;52.202;5.996;2022-07-05T01:53:18;13.70;99.90
20416;DHT22;10367;52.202;5.996;2022-07-05T01:55:47;13.60;99.90
20416;DHT22;10367;52.202;5.996;2022-07-05T01:58:16;13.50;99.90
20416;DHT22;10367;52.202;5.996;2022-07-05T02:00:46;13.40;99.90
20416;DHT22;10367;52.202;5.996;2022-07-05T02:03:16;13.30;99.90
20416;DHT22;10367;52.202;5.996;2022-07-05T02:06:07;13.30;99.90
20416;DHT22;10367;52.202;5.996;2022-07-05T02:08:39;13.30;99.90
20416;DHT22;10367;52.202;5.996;2022-07-05T02:11:08;13.30;99.90
20416;DHT22;10367;52.202;5.996;2022-07-05T02:13:36;13.40;99.90
20416;DHT22;10367;52.202;5.996;2022-07-05T02:16:06;13.40;99.90
20416;DHT22;10367;52.202;5.996;2022-07-05T02:18:35;13.40;99.90
20416;DHT22;10367;52.202;5.996;2022-07-05T02:21:04;13.30;99.90
20416;DHT22;10367;52.202;5.996;2022-07-05T02:23:33;13.40;99.90
20416;DHT22;10367;52.202;5.996;2022-07-05T02:26:03;13.40;99.90
20416;DHT22;10367;52.202;5.996;2022-07-05T02:28:32;13.40;99.90
20416;DHT22;10367;52.202;5.996;2022-07-05T02:31:01;13.50;99.90
20416;DHT22;10367;52.202;5.996;2022-07-05T02:33:29;13.70;99.90
20416;DHT22;10367;52.202;5.996;2022-07-05T02:36:05;13.70;99.90
20416;DHT22;10367;52.202;5.996;2022-07-05T02:38:35;13.90;99.90
20416;DHT22;10367;52.202;5.996;2022-07-05T02:41:09;13.90;99.90
20416;DHT22;10367;52.202;5.996;2022-07-05T02:43:38;13.90;99.90
20416;DHT22;10367;52.202;5.996;2022-07-05T02:46:08;13.90;99.90
20416;DHT22;10367;52.202;5.996;2022-07-05T02:48:37;14.00;99.90
20416;DHT22;10367;52.202;5.996;2022-07-05T02:51:06;14.00;99.90
20416;DHT22;10367;52.202;5.996;2022-07-05T02:53:35;14.10;99.90
20416;DHT22;10367;52.202;5.996;2022-07-05T02:56:13;14.00;99.90
20416;DHT22;10367;52.202;5.996;2022-07-05T02:59:00;14.00;99.90
20416;DHT22;10367;52.202;5.996;2022-07-05T03:01:29;14.10;99.90
20416;DHT22;10367;52.202;5.996;2022-07-05T03:03:58;14.20;99.90
20416;DHT22;10367;52.202;5.996;2022-07-05T03:06:27;14.20;99.90
20416;DHT22;10367;52.202;5.996;2022-07-05T03:08:56;14.20;99.90
20416;DHT22;10367;52.202;5.996;2022-07-05T03:11:26;14.30;99.90
20416;DHT22;10367;52.202;5.996;2022-07-05T03:13:55;14.40;99.90
20416;DHT22;10367;52.202;5.996;2022-07-05T03:16:24;14.30;99.90
20416;DHT22;10367;52.202;5.996;2022-07-05T03:18:53;14.30;99.90
20416;DHT22;10367;52.202;5.996;2022-07-05T03:21:22;14.30;99.90
20416;DHT22;10367;52.202;5.996;2022-07-05T03:23:51;14.40;99.90
20416;DHT22;10367;52.202;5.996;2022-07-05T03:26:19;14.40;99.90
20416;DHT22;10367;52.202;5.996;2022-07-05T03:28:49;14.40;99.90
20416;DHT22;10367;52.202;5.996;2022-07-05T03:31:18;14.40;99.90
20416;DHT22;10367;52.202;5.996;2022-07-05T03:33:47;14.40;99.90
20416;DHT22;10367;52.202;5.996;2022-07-05T03:36:16;14.50;99.90
20416;DHT22;10367;52.202;5.996;2022-07-05T03:38:44;14.30;99.90
20416;DHT22;10367;52.202;5.996;2022-07-05T03:41:13;14.30;99.90
20416;DHT22;10367;52.202;5.996;2022-07-05T03:43:42;14.30;99.90
20416;DHT22;10367;52.202;5.996;2022-07-05T03:46:23;14.40;99.90
20416;DHT22;10367;52.202;5.996;2022-07-05T03:48:52;14.40;99.90
20416;DHT22;10367;52.202;5.996;2022-07-05T03:51:21;14.50;99.90
20416;DHT22;10367;52.202;5.996;2022-07-05T03:53:49;14.50;99.90
20416;DHT22;10367;52.202;5.996;2022-07-05T03:56:18;14.50;99.90
20416;DHT22;10367;52.202;5.996;2022-07-05T03:58:50;14.50;99.90
20416;DHT22;10367;52.202;5.996;2022-07-05T04:01:20;14.50;99.90
20416;DHT22;10367;52.202;5.996;2022-07-05T04:03:49;14.60;99.90
20416;DHT22;10367;52.202;5.996;2022-07-05T04:06:18;14.50;99.90
20416;DHT22;10367;52.202;5.996;2022-07-05T04:08:47;14.50;99.90
20416;DHT22;10367;52.202;5.996;2022-07-05T04:11:15;14.60;99.90
20416;DHT22;10367;52.202;5.996;2022-07-05T04:13:44;14.70;99.90
20416;DHT22;10367;52.202;5.996;2022-07-05T04:16:12;14.70;99.90
20416;DHT22;10367;52.202;5.996;2022-07-05T04:18:43;14.70;99.90
20416;DHT22;10367;52.202;5.996;2022-07-05T04:21:12;14.70;99.90
20416;DHT22;10367;52.202;5.996;2022-07-05T04:23:40;14.80;99.90
20416;DHT22;10367;52.202;5.996;2022-07-05T04:26:09;14.80;99.90
20416;DHT22;10367;52.202;5.996;2022-07-05T04:28:38;14.90;99.90
20416;DHT22;10367;52.202;5.996;2022-07-05T04:31:07;15.00;99.90
20416;DHT22;10367;52.202;5.996;2022-07-05T04:33:36;15.00;99.90
20416;DHT22;10367;52.202;5.996;2022-07-05T04:36:07;15.00;99.90
20416;DHT22;10367;52.202;5.996;2022-07-05T04:38:35;15.00;99.90
20416;DHT22;10367;52.202;5.996;2022-07-05T04:41:04;15.00;99.90
20416;DHT22;10367;52.202;5.996;2022-07-05T04:43:33;15.00;99.90
20416;DHT22;10367;52.202;5.996;2022-07-05T04:46:02;15.10;99.90
20416;DHT22;10367;52.202;5.996;2022-07-05T04:48:31;15.00;99.90
20416;DHT22;10367;52.202;5.996;2022-07-05T04:50:59;15.00;99.90
20416;DHT22;10367;52.202;5.996;2022-07-05T04:53:30;15.10;99.90
20416;DHT22;10367;52.202;5.996;2022-07-05T04:55:58;15.10;99.90
20416;DHT22;10367;52.202;5.996;2022-07-05T04:58:27;15.30;99.90
20416;DHT22;10367;52.202;5.996;2022-07-05T05:00:56;15.40;99.90
20416;DHT22;10367;52.202;5.996;2022-07-05T05:03:24;15.50;99.90
20416;DHT22;10367;52.202;5.996;2022-07-05T05:05:53;15.60;99.90
20416;DHT22;10367;52.202;5.996;2022-07-05T05:08:22;15.60;99.90
20416;DHT22;10367;52.202;5.996;2022-07-05T05:10:52;15.50;99.90
20416;DHT22;10367;52.202;5.996;2022-07-05T05:13:21;15.60;99.90
20416;DHT22;10367;52.202;5.996;2022-07-05T05:15:49;15.70;99.90
20416;DHT22;10367;52.202;5.996;2022-07-05T05:18:18;15.70;99.90
20416;DHT22;10367;52.202;5.996;2022-07-05T05:20:51;15.80;99.90
20416;DHT22;10367;52.202;5.996;2022-07-05T05:23:20;15.80;99.90
20416;DHT22;10367;52.202;5.996;2022-07-05T05:25:49;15.80;99.90
20416;DHT22;10367;52.202;5.996;2022-07-05T05:28:19;15.80;99.90
20416;DHT22;10367;52.202;5.996;2022-07-05T05:30:48;16.00;99.90
20416;DHT22;10367;52.202;5.996;2022-07-05T05:33:16;16.10;99.90
20416;DHT22;10367;52.202;5.996;2022-07-05T05:35:50;16.20;99.90
20416;DHT22;10367;52.202;5.996;2022-07-05T05:38:19;16.30;99.90
20416;DHT22;10367;52.202;5.996;2022-07-05T05:40:51;16.40;99.90
20416;DHT22;10367;52.202;5.996;2022-07-05T05:43:25;16.50;99.90
20416;DHT22;10367;52.202;5.996;2022-07-05T05:45:54;16.60;99.90
20416;DHT22;10367;52.202;5.996;2022-07-05T05:48:22;16.70;99.90
20416;DHT22;10367;52.202;5.996;2022-07-05T05:50:51;16.90;99.90
20416;DHT22;10367;52.202;5.996;2022-07-05T05:53:20;16.90;99.90
20416;DHT22;10367;52.202;5.996;2022-07-05T05:55:55;17.00;99.90
20416;DHT22;10367;52.202;5.996;2022-07-05T05:58:25;17.10;99.90
20416;DHT22;10367;52.202;5.996;2022-07-05T06:00:54;17.20;99.90
20416;DHT22;10367;52.202;5.996;2022-07-05T06:03:25;17.20;99.90
20416;DHT22;10367;52.202;5.996;2022-07-05T06:05:54;17.10;99.90
20416;DHT22;10367;52.202;5.996;2022-07-05T06:08:23;16.90;99.90
20416;DHT22;10367;52.202;5.996;2022-07-05T06:10:51;16.80;99.90
20416;DHT22;10367;52.202;5.996;2022-07-05T06:13:28;16.90;99.90
20416;DHT22;10367;52.202;5.996;2022-07-05T06:15:57;17.10;99.90
20416;DHT22;10367;52.202;5.996;2022-07-05T06:18:26;17.30;99.90
20416;DHT22;10367;52.202;5.996;2022-07-05T06:20:55;17.60;99.90
20416;DHT22;10367;52.202;5.996;2022-07-05T06:23:24;17.70;99.90
20416;DHT22;10367;52.202;5.996;2022-07-05T06:25:53;17.70;99.90
20416;DHT22;10367;52.202;5.996;2022-07-05T06:28:21;17.60;99.90
20416;DHT22;10367;52.202;5.996;2022-07-05T06:30:51;17.60;99.90
20416;DHT22;10367;52.202;5.996;2022-07-05T06:33:21;17.70;99.90
20416;DHT22;10367;52.202;5.996;2022-07-05T06:35:49;17.70;99.90
20416;DHT22;10367;52.202;5.996;2022-07-05T06:38:18;17.60;99.90
20416;DHT22;10367;52.202;5.996;2022-07-05T06:40:47;17.60;99.90
20416;DHT22;10367;52.202;5.996;2022-07-05T06:43:16;17.50;99.90
20416;DHT22;10367;52.202;5.996;2022-07-05T06:45:45;17.40;99.90
20416;DHT22;10367;52.202;5.996;2022-07-05T06:48:17;17.40;99.90
20416;DHT22;10367;52.202;5.996;2022-07-05T06:50:45;17.60;99.90
20416;DHT22;10367;52.202;5.996;2022-07-05T06:53:14;17.70;99.90
20416;DHT22;10367;52.202;5.996;2022-07-05T06:55:43;17.90;99.90
20416;DHT22;10367;52.202;5.996;2022-07-05T06:58:22;18.20;99.90
20416;DHT22;10367;52.202;5.996;2022-07-05T07:00:51;18.40;99.90
20416;DHT22;10367;52.202;5.996;2022-07-05T07:03:41;18.50;99.90
20416;DHT22;10367;52.202;5.996;2022-07-05T07:06:29;18.50;99.90
20416;DHT22;10367;52.202;5.996;2022-07-05T07:09:01;18.60;99.90
20416;DHT22;10367;52.202;5.996;2022-07-05T07:11:47;18.50;99.90
20416;DHT22;10367;52.202;5.996;2022-07-05T07:14:16;18.50;99.90
20416;DHT22;10367;52.202;5.996;2022-07-05T07:16:45;18.40;99.90
20416;DHT22;10367;52.202;5.996;2022-07-05T07:19:15;18.40;99.90
20416;DHT22;10367;52.202;5.996;2022-07-05T07:21:44;18.50;99.90
20416;DHT22;10367;52.202;5.996;2022-07-05T07:24:12;18.50;99.90
20416;DHT22;10367;52.202;5.996;2022-07-05T07:26:41;18.70;99.90
20416;DHT22;10367;52.202;5.996;2022-07-05T07:29:28;18.90;99.90
20416;DHT22;10367;52.202;5.996;2022-07-05T07:31:59;19.10;99.90
20416;DHT22;10367;52.202;5.996;2022-07-05T07:34:30;19.40;99.90
20416;DHT22;10367;52.202;5.996;2022-07-05T07:36:59;19.80;99.90
20416;DHT22;10367;52.202;5.996;2022-07-05T07:39:28;20.20;99.90
20416;DHT22;10367;52.202;5.996;2022-07-05T07:41:59;20.50;99.90
20416;DHT22;10367;52.202;5.996;2022-07-05T07:44:28;20.70;99.90
20416;DHT22;10367;52.202;5.996;2022-07-05T07:46:58;20.80;99.90
20416;DHT22;10367;52.202;5.996;2022-07-05T07:49:27;20.80;99.90
20416;DHT22;10367;52.202;5.996;2022-07-05T07:52:05;20.90;99.90
20416;DHT22;10367;52.202;5.996;2022-07-05T07:54:33;20.90;99.90
20416;DHT22;10367;52.202;5.996;2022-07-05T07:57:03;20.90;99.90
20416;DHT22;10367;52.202;5.996;2022-07-05T07:59:32;21.00;99.90
20416;DHT22;10367;52.202;5.996;2022-07-05T08:02:04;21.10;99.90
20416;DHT22;10367;52.202;5.996;2022-07-05T08:04:34;21.10;99.90
20416;DHT22;10367;52.202;5.996;2022-07-05T08:07:04;21.20;99.90
20416;DHT22;10367;52.202;5.996;2022-07-05T08:09:33;21.10;99.90
20416;DHT22;10367;52.202;5.996;2022-07-05T08:12:02;21.10;99.90
20416;DHT22;10367;52.202;5.996;2022-07-05T08:14:31;21.10;99.90
20416;DHT22;10367;52.202;5.996;2022-07-05T08:16:59;21.20;99.90
20416;DHT22;10367;52.202;5.996;2022-07-05T08:19:31;21.30;99.90
20416;DHT22;10367;52.202;5.996;2022-07-05T08:22:19;21.00;99.90
20416;DHT22;10367;52.202;5.996;2022-07-05T08:24:48;21.00;99.90
20416;DHT22;10367;52.202;5.996;2022-07-05T08:27:18;21.20;99.90
20416;DHT22;10367;52.202;5.996;2022-07-05T08:29:49;21.30;99.90
20416;DHT22;10367;52.202;5.996;2022-07-05T08:32:18;21.40;99.90
20416;DHT22;10367;52.202;5.996;2022-07-05T08:34:47;21.50;99.90
20416;DHT22;10367;52.202;5.996;2022-07-05T08:37:15;21.30;99.90
20416;DHT22;10367;52.202;5.996;2022-07-05T08:39:46;21.10;99.90
20416;DHT22;10367;52.202;5.996;2022-07-05T08:42:14;20.90;99.90
20416;DHT22;10367;52.202;5.996;2022-07-05T08:44:44;20.90;99.90
20416;DHT22;10367;52.202;5.996;2022-07-05T08:47:14;21.10;99.90
20416;DHT22;10367;52.202;5.996;2022-07-05T08:49:45;21.40;99.90
20416;DHT22;10367;52.202;5.996;2022-07-05T08:52:18;21.60;99.90
20416;DHT22;10367;52.202;5.996;2022-07-05T08:54:51;21.80;99.90
20416;DHT22;10367;52.202;5.996;2022-07-05T08:57:20;21.80;99.90
20416;DHT22;10367;52.202;5.996;2022-07-05T08:59:49;21.90;99.90
20416;DHT22;10367;52.202;5.996;2022-07-05T09:02:19;22.00;99.90
20416;DHT22;10367;52.202;5.996;2022-07-05T09:04:49;22.30;99.90
20416;DHT22;10367;52.202;5.996;2022-07-05T09:07:20;22.70;99.90
20416;DHT22;10367;52.202;5.996;2022-07-05T09:09:56;22.80;99.10
20416;DHT22;10367;52.202;5.996;2022-07-05T09:12:28;22.70;98.90
20416;DHT22;10367;52.202;5.996;2022-07-05T09:15:16;22.50;99.10
20416;DHT22;10367;52.202;5.996;2022-07-05T09:17:46;22.50;96.60
20416;DHT22;10367;52.202;5.996;2022-07-05T09:20:15;22.40;98.10
20416;DHT22;10367;52.202;5.996;2022-07-05T09:22:47;22.10;98.10
20416;DHT22;10367;52.202;5.996;2022-07-05T09:25:19;22.00;98.40
20416;DHT22;10367;52.202;5.996;2022-07-05T09:27:50;22.10;98.10
20416;DHT22;10367;52.202;5.996;2022-07-05T09:30:27;22.00;97.90
20416;DHT22;10367;52.202;5.996;2022-07-05T09:33:03;21.90;97.60
20416;DHT22;10367;52.202;5.996;2022-07-05T09:35:33;21.90;97.30
20416;DHT22;10367;52.202;5.996;2022-07-05T09:38:02;21.90;97.10
20416;DHT22;10367;52.202;5.996;2022-07-05T09:40:33;22.00;96.60
20416;DHT22;10367;52.202;5.996;2022-07-05T09:43:14;22.20;96.00
20416;DHT22;10367;52.202;5.996;2022-07-05T09:45:52;22.30;95.40
20416;DHT22;10367;52.202;5.996;2022-07-05T09:48:21;21.90;95.10
20416;DHT22;10367;52.202;5.996;2022-07-05T09:51:05;21.80;95.00
20416;DHT22;10367;52.202;5.996;2022-07-05T09:53:57;21.60;94.40
20416;DHT22;10367;52.202;5.996;2022-07-05T09:56:50;21.60;94.40
20416;DHT22;10367;52.202;5.996;2022-07-05T09:59:20;21.30;94.30
20416;DHT22;10367;52.202;5.996;2022-07-05T10:01:50;21.30;94.90
20416;DHT22;10367;52.202;5.996;2022-07-05T10:04:19;21.40;94.70
20416;DHT22;10367;52.202;5.996;2022-07-05T10:06:48;21.20;94.90
20416;DHT22;10367;52.202;5.996;2022-07-05T10:09:18;21.20;94.70
20416;DHT22;10367;52.202;5.996;2022-07-05T10:11:47;21.00;94.90
20416;DHT22;10367;52.202;5.996;2022-07-05T10:14:19;21.20;94.60
20416;DHT22;10367;52.202;5.996;2022-07-05T10:17:06;21.80;93.80
20416;DHT22;10367;52.202;5.996;2022-07-05T10:19:39;22.60;92.20
20416;DHT22;10367;52.202;5.996;2022-07-05T10:22:11;23.00;91.20
20416;DHT22;10367;52.202;5.996;2022-07-05T10:24:46;23.00;90.90
20416;DHT22;10367;52.202;5.996;2022-07-05T10:27:18;23.30;90.20
20416;DHT22;10367;52.202;5.996;2022-07-05T10:29:49;23.70;90.10
20416;DHT22;10367;52.202;5.996;2022-07-05T10:32:19;24.00;88.90
20416;DHT22;10367;52.202;5.996;2022-07-05T10:34:53;24.20;87.80
20416;DHT22;10367;52.202;5.996;2022-07-05T10:37:28;23.60;88.20
20416;DHT22;10367;52.202;5.996;2022-07-05T10:39:58;23.50;88.40
20416;DHT22;10367;52.202;5.996;2022-07-05T10:42:37;23.60;87.50
20416;DHT22;10367;52.202;5.996;2022-07-05T10:45:26;23.30;86.60
20416;DHT22;10367;52.202;5.996;2022-07-05T10:48:18;22.60;86.70
20416;DHT22;10367;52.202;5.996;2022-07-05T10:50:49;22.30;88.20
20416;DHT22;10367;52.202;5.996;2022-07-05T10:53:20;22.20;88.70
20416;DHT22;10367;52.202;5.996;2022-07-05T10:55:55;22.10;89.20
20416;DHT22;10367;52.202;5.996;2022-07-05T10:58:25;22.40;88.90
20416;DHT22;10367;52.202;5.996;2022-07-05T11:04:34;23.60;83.70
20416;DHT22;10367;52.202;5.996;2022-07-05T11:07:03;24.40;81.40
20416;DHT22;10367;52.202;5.996;2022-07-05T11:09:32;24.40;81.00
20416;DHT22;10367;52.202;5.996;2022-07-05T11:12:09;24.00;81.80
20416;DHT22;10367;52.202;5.996;2022-07-05T11:15:05;23.90;82.00
20416;DHT22;10367;52.202;5.996;2022-07-05T11:17:36;23.80;82.60
20416;DHT22;10367;52.202;5.996;2022-07-05T11:20:31;24.40;81.90
20416;DHT22;10367;52.202;5.996;2022-07-05T11:23:02;24.50;81.10
20416;DHT22;10367;52.202;5.996;2022-07-05T11:25:32;24.50;80.40
20416;DHT22;10367;52.202;5.996;2022-07-05T11:28:07;23.70;81.10
20416;DHT22;10367;52.202;5.996;2022-07-05T11:30:50;23.10;81.20
20416;DHT22;10367;52.202;5.996;2022-07-05T11:36:24;22.90;81.40
20416;DHT22;10367;52.202;5.996;2022-07-05T11:39:18;23.00;78.20
20416;DHT22;10367;52.202;5.996;2022-07-05T11:41:48;23.20;75.60
20416;DHT22;10367;52.202;5.996;2022-07-05T11:44:17;23.80;76.70
20416;DHT22;10367;52.202;5.996;2022-07-05T11:46:46;23.90;76.10
20416;DHT22;10367;52.202;5.996;2022-07-05T11:49:21;24.00;75.80
20416;DHT22;10367;52.202;5.996;2022-07-05T11:51:58;23.90;76.00
20416;DHT22;10367;52.202;5.996;2022-07-05T11:54:29;23.30;76.70
20416;DHT22;10367;52.202;5.996;2022-07-05T11:56:59;23.30;78.10
20416;DHT22;10367;52.202;5.996;2022-07-05T11:59:28;23.70;77.60
20416;DHT22;10367;52.202;5.996;2022-07-05T12:01:57;23.90;76.80
20416;DHT22;10367;52.202;5.996;2022-07-05T12:04:27;24.00;77.20
20416;DHT22;10367;52.202;5.996;2022-07-05T12:06:58;24.00;75.80
20416;DHT22;10367;52.202;5.996;2022-07-05T12:09:27;24.10;75.60
20416;DHT22;10367;52.202;5.996;2022-07-05T12:12:20;24.30;75.30
20416;DHT22;10367;52.202;5.996;2022-07-05T12:15:07;24.50;74.80
20416;DHT22;10367;52.202;5.996;2022-07-05T12:17:37;24.20;75.20
20416;DHT22;10367;52.202;5.996;2022-07-05T12:20:08;24.00;76.40
20416;DHT22;10367;52.202;5.996;2022-07-05T12:22:42;24.00;75.90
20416;DHT22;10367;52.202;5.996;2022-07-05T12:25:13;23.70;76.30
20416;DHT22;10367;52.202;5.996;2022-07-05T12:27:44;23.70;77.20
20416;DHT22;10367;52.202;5.996;2022-07-05T12:30:13;23.80;76.60
20416;DHT22;10367;52.202;5.996;2022-07-05T12:32:55;23.20;77.80
20416;DHT22;10367;52.202;5.996;2022-07-05T12:35:33;23.00;78.50
20416;DHT22;10367;52.202;5.996;2022-07-05T12:38:06;23.60;77.60
20416;DHT22;10367;52.202;5.996;2022-07-05T12:40:36;24.30;75.90
20416;DHT22;10367;52.202;5.996;2022-07-05T12:43:07;24.80;74.70
20416;DHT22;10367;52.202;5.996;2022-07-05T12:45:37;24.60;74.40
20416;DHT22;10367;52.202;5.996;2022-07-05T12:48:08;24.40;75.20
20416;DHT22;10367;52.202;5.996;2022-07-05T12:50:48;24.30;75.20
20416;DHT22;10367;52.202;5.996;2022-07-05T12:53:45;23.70;76.60
20416;DHT22;10367;52.202;5.996;2022-07-05T12:56:32;23.70;77.10
20416;DHT22;10367;52.202;5.996;2022-07-05T12:59:39;23.30;78.30
20416;DHT22;10367;52.202;5.996;2022-07-05T13:02:08;23.30;79.10
20416;DHT22;10367;52.202;5.996;2022-07-05T13:04:52;24.00;77.50
20416;DHT22;10367;52.202;5.996;2022-07-05T13:07:25;24.80;75.50
20416;DHT22;10367;52.202;5.996;2022-07-05T13:10:15;24.60;75.20
20416;DHT22;10367;52.202;5.996;2022-07-05T13:12:44;24.30;75.50
20416;DHT22;10367;52.202;5.996;2022-07-05T13:15:13;24.30;75.40
20416;DHT22;10367;52.202;5.996;2022-07-05T13:17:42;23.80;76.10
20416;DHT22;10367;52.202;5.996;2022-07-05T13:20:13;23.70;76.20
20416;DHT22;10367;52.202;5.996;2022-07-05T13:22:45;23.60;76.60
20416;DHT22;10367;52.202;5.996;2022-07-05T13:25:16;23.50;76.60
20416;DHT22;10367;52.202;5.996;2022-07-05T13:27:45;23.20;76.90
20416;DHT22;10367;52.202;5.996;2022-07-05T13:30:13;23.10;77.00
20416;DHT22;10367;52.202;5.996;2022-07-05T13:32:42;23.40;76.50
20416;DHT22;10367;52.202;5.996;2022-07-05T13:35:11;23.40;76.20
20416;DHT22;10367;52.202;5.996;2022-07-05T13:37:40;23.20;76.30
20416;DHT22;10367;52.202;5.996;2022-07-05T13:40:11;22.90;76.50
20416;DHT22;10367;52.202;5.996;2022-07-05T13:42:41;22.90;76.90
20416;DHT22;10367;52.202;5.996;2022-07-05T13:45:10;22.90;76.90
20416;DHT22;10367;52.202;5.996;2022-07-05T13:47:41;23.10;76.50
20416;DHT22;10367;52.202;5.996;2022-07-05T13:50:10;23.20;76.10
20416;DHT22;10367;52.202;5.996;2022-07-05T13:52:57;23.30;76.10
20416;DHT22;10367;52.202;5.996;2022-07-05T13:55:26;23.20;76.20
20416;DHT22;10367;52.202;5.996;2022-07-05T13:57:56;23.00;76.40
20416;DHT22;10367;52.202;5.996;2022-07-05T14:00:25;22.80;76.70
20416;DHT22;10367;52.202;5.996;2022-07-05T14:02:54;22.80;76.90
20416;DHT22;10367;52.202;5.996;2022-07-05T14:05:33;22.80;76.60
20416;DHT22;10367;52.202;5.996;2022-07-05T14:08:01;22.80;76.60
20416;DHT22;10367;52.202;5.996;2022-07-05T14:10:30;22.20;77.20
20416;DHT22;10367;52.202;5.996;2022-07-05T14:13:00;22.10;77.50
20416;DHT22;10367;52.202;5.996;2022-07-05T14:15:29;22.80;76.30
20416;DHT22;10367;52.202;5.996;2022-07-05T14:17:58;23.00;75.50
20416;DHT22;10367;52.202;5.996;2022-07-05T14:20:30;22.90;75.80
20416;DHT22;10367;52.202;5.996;2022-07-05T14:22:59;23.10;75.10
20416;DHT22;10367;52.202;5.996;2022-07-05T14:25:28;23.10;75.30
20416;DHT22;10367;52.202;5.996;2022-07-05T14:27:56;23.30;75.00
20416;DHT22;10367;52.202;5.996;2022-07-05T14:30:26;23.00;75.20
20416;DHT22;10367;52.202;5.996;2022-07-05T14:32:55;22.40;76.00
20416;DHT22;10367;52.202;5.996;2022-07-05T14:35:33;21.90;77.20
20416;DHT22;10367;52.202;5.996;2022-07-05T14:38:02;22.30;76.50
20416;DHT22;10367;52.202;5.996;2022-07-05T14:40:31;22.50;76.00
20416;DHT22;10367;52.202;5.996;2022-07-05T14:43:00;23.30;74.30
20416;DHT22;10367;52.202;5.996;2022-07-05T14:45:31;24.00;72.10
20416;DHT22;10367;52.202;5.996;2022-07-05T14:48:00;24.20;71.60
20416;DHT22;10367;52.202;5.996;2022-07-05T14:50:28;24.70;70.90
20416;DHT22;10367;52.202;5.996;2022-07-05T14:52:57;25.20;69.90
20416;DHT22;10367;52.202;5.996;2022-07-05T14:55:32;24.70;69.90
20416;DHT22;10367;52.202;5.996;2022-07-05T14:58:21;24.50;70.60
20416;DHT22;10367;52.202;5.996;2022-07-05T15:00:51;24.10;71.30
20416;DHT22;10367;52.202;5.996;2022-07-05T15:03:21;24.10;71.40
20416;DHT22;10367;52.202;5.996;2022-07-05T15:05:51;23.70;71.90
20416;DHT22;10367;52.202;5.996;2022-07-05T15:08:21;23.50;72.10
20416;DHT22;10367;52.202;5.996;2022-07-05T15:10:49;23.50;71.60
20416;DHT22;10367;52.202;5.996;2022-07-05T15:13:19;23.00;71.90
20416;DHT22;10367;52.202;5.996;2022-07-05T15:15:48;22.80;72.40
20416;DHT22;10367;52.202;5.996;2022-07-05T15:18:18;23.00;71.90
20416;DHT22;10367;52.202;5.996;2022-07-05T15:20:50;23.30;71.50
20416;DHT22;10367;52.202;5.996;2022-07-05T15:23:26;23.80;70.40
20416;DHT22;10367;52.202;5.996;2022-07-05T15:25:56;24.00;69.60
20416;DHT22;10367;52.202;5.996;2022-07-05T15:28:25;24.00;70.00
20416;DHT22;10367;52.202;5.996;2022-07-05T15:30:54;23.60;70.00
20416;DHT22;10367;52.202;5.996;2022-07-05T15:33:24;23.50;70.50
20416;DHT22;10367;52.202;5.996;2022-07-05T15:35:57;23.70;70.10
20416;DHT22;10367;52.202;5.996;2022-07-05T15:38:26;24.40;69.10
20416;DHT22;10367;52.202;5.996;2022-07-05T15:40:55;24.70;68.20
20416;DHT22;10367;52.202;5.996;2022-07-05T15:43:24;24.00;69.30
20416;DHT22;10367;52.202;5.996;2022-07-05T15:45:55;24.40;69.20
20416;DHT22;10367;52.202;5.996;2022-07-05T15:48:26;24.90;68.20
20416;DHT22;10367;52.202;5.996;2022-07-05T15:50:55;24.80;68.10
20416;DHT22;10367;52.202;5.996;2022-07-05T15:53:27;24.00;69.50
20416;DHT22;10367;52.202;5.996;2022-07-05T15:55:59;23.30;70.80
20416;DHT22;10367;52.202;5.996;2022-07-05T15:58:28;23.20;71.20
20416;DHT22;10367;52.202;5.996;2022-07-05T16:00:59;23.50;70.70
20416;DHT22;10367;52.202;5.996;2022-07-05T16:03:30;24.00;69.50
20416;DHT22;10367;52.202;5.996;2022-07-05T16:06:01;23.90;69.80